createdAt,value
2022-10-28T00:01:36.802Z,2.03
2022-10-28T00:04:06.077Z,2.67
2022-10-28T00:06:37.769Z,2.33
2022-10-28T00:09:09.782Z,2.77
2022-10-28T00:11:41.271Z,3.00
2022-10-28T00:14:10.951Z,2.83
2022-10-28T00:16:40.130Z,2.75
2022-10-28T00:19:12.163Z,2.53
2022-10-28T00:21:44.160Z,2.13
2022-10-28T00:24:14.583Z,2.90
2022-10-28T00:26:44.759Z,2.55
2022-10-28T00:29:15.919Z,2.88
2022-10-28T00:31:45.807Z,2.97
2022-10-28T00:34:17.020Z,2.60
2022-10-28T00:36:48.586Z,3.15
2022-10-28T00:39:19.159Z,2.83
2022-10-28T00:41:51.097Z,3.17
2022-10-28T00:44:42.508Z,3.08
2022-10-28T00:47:18.591Z,2.50
2022-10-28T00:49:50.455Z,2.40
2022-10-28T00:52:25.402Z,3.47
2022-10-28T00:54:55.848Z,2.97
2022-10-28T00:57:29.469Z,2.63
2022-10-28T00:59:59.724Z,2.80
2022-10-28T01:02:29.073Z,3.08
2022-10-28T01:04:58.052Z,3.45
2022-10-28T01:07:28.321Z,2.50
2022-10-28T01:09:57.695Z,2.70
2022-10-28T01:12:34.993Z,2.90
2022-10-28T01:15:13.789Z,3.30
2022-10-28T01:17:56.038Z,3.30
2022-10-28T01:20:48.332Z,2.60
2022-10-28T01:23:27.399Z,2.90
2022-10-28T01:26:35.231Z,3.00
2022-10-28T01:29:41.090Z,3.17
2022-10-28T01:32:18.218Z,3.20
2022-10-28T01:34:58.120Z,2.70
2022-10-28T01:37:36.208Z,3.10
2022-10-28T01:40:12.570Z,3.30
2022-10-28T01:42:47.320Z,3.20
2022-10-28T01:45:21.126Z,2.70
2022-10-28T01:47:58.085Z,3.23
2022-10-28T01:50:33.469Z,3.03
2022-10-28T01:53:08.800Z,2.80
2022-10-28T01:55:40.190Z,3.20
2022-10-28T01:58:12.727Z,3.10
2022-10-28T02:00:43.882Z,2.83
2022-10-28T02:03:14.323Z,3.10
2022-10-28T02:05:45.807Z,3.08
2022-10-28T02:08:34.292Z,2.97
2022-10-28T02:11:19.203Z,3.00
2022-10-28T02:14:00.974Z,3.13
2022-10-28T02:16:39.117Z,2.67
2022-10-28T02:19:16.699Z,3.03
2022-10-28T02:21:57.675Z,3.53
2022-10-28T02:24:39.391Z,3.20
2022-10-28T02:27:14.535Z,3.17
2022-10-28T02:29:48.408Z,2.97
2022-10-28T02:32:21.586Z,3.13
2022-10-28T02:34:56.283Z,3.47
2022-10-28T02:37:30.469Z,3.10
2022-10-28T02:40:04.560Z,3.13
2022-10-28T02:42:37.768Z,3.87
2022-10-28T02:45:12.808Z,3.60
2022-10-28T02:47:45.555Z,2.60
2022-10-28T02:50:21.244Z,3.70
2022-10-28T02:52:54.245Z,3.57
2022-10-28T02:55:26.149Z,4.60
2022-10-28T02:57:55.417Z,4.13
2022-10-28T03:00:25.520Z,4.93
2022-10-28T03:02:54.441Z,4.87
2022-10-28T03:05:24.774Z,3.47
2022-10-28T03:07:54.043Z,3.77
2022-10-28T03:10:23.197Z,4.20
2022-10-28T03:12:52.123Z,4.50
2022-10-28T03:15:21.002Z,4.00
2022-10-28T03:17:49.969Z,3.97
2022-10-28T03:20:18.941Z,3.70
2022-10-28T03:22:50.957Z,3.97
2022-10-28T03:25:20.041Z,3.40
2022-10-28T03:27:48.928Z,3.80
2022-10-28T03:30:18.441Z,4.07
2022-10-28T03:32:47.453Z,3.57
2022-10-28T03:35:16.542Z,4.10
2022-10-28T03:37:45.768Z,4.10
2022-10-28T03:40:16.210Z,4.73
2022-10-28T03:42:45.561Z,4.30
2022-10-28T03:45:14.553Z,4.13
2022-10-28T03:47:44.249Z,4.10
2022-10-28T03:50:13.238Z,4.83
2022-10-28T03:52:43.528Z,5.37
2022-10-28T03:55:12.523Z,4.73
2022-10-28T03:57:42.777Z,4.87
2022-10-28T04:00:12.614Z,3.97
2022-10-28T04:02:41.523Z,3.70
2022-10-28T04:05:10.594Z,3.93
2022-10-28T04:07:39.492Z,6.83
2022-10-28T04:10:08.873Z,4.37
2022-10-28T04:12:38.050Z,3.90
2022-10-28T04:15:09.195Z,4.50
2022-10-28T04:17:38.097Z,3.90
2022-10-28T04:20:08.170Z,3.53
2022-10-28T04:22:37.087Z,3.77
2022-10-28T04:25:06.566Z,3.67
2022-10-28T04:27:35.536Z,4.60
2022-10-28T04:30:05.582Z,4.90
2022-10-28T04:32:35.857Z,3.78
2022-10-28T04:35:05.217Z,4.00
2022-10-28T04:37:34.219Z,4.33
2022-10-28T04:40:03.263Z,4.03
2022-10-28T04:42:32.189Z,3.70
2022-10-28T04:45:01.099Z,4.27
2022-10-28T04:47:30.052Z,4.00
2022-10-28T04:50:00.350Z,4.57
2022-10-28T04:52:29.271Z,3.90
2022-10-28T04:54:58.232Z,4.10
2022-10-28T04:57:27.272Z,4.57
2022-10-28T04:59:56.223Z,4.23
2022-10-28T05:02:25.320Z,5.55
2022-10-28T05:04:54.302Z,4.03
2022-10-28T05:07:24.599Z,4.30
2022-10-28T05:09:53.504Z,3.75
2022-10-28T05:12:22.741Z,4.40
2022-10-28T05:14:53.150Z,3.73
2022-10-28T05:17:22.208Z,4.30
2022-10-28T05:19:51.175Z,3.47
2022-10-28T05:22:20.090Z,3.73
2022-10-28T05:24:50.611Z,4.13
2022-10-28T05:27:19.515Z,3.57
2022-10-28T05:29:48.456Z,4.13
2022-10-28T05:32:17.401Z,3.85
2022-10-28T05:34:46.293Z,3.75
2022-10-28T05:37:15.199Z,4.20
2022-10-28T05:39:44.189Z,3.93
2022-10-28T05:42:14.469Z,4.50
2022-10-28T05:44:43.510Z,3.83
2022-10-28T05:47:12.456Z,3.70
2022-10-28T05:49:41.433Z,3.97
2022-10-28T05:52:10.442Z,3.73
2022-10-28T05:54:39.423Z,4.23
2022-10-28T05:57:08.345Z,4.27
2022-10-28T05:59:38.601Z,3.73
2022-10-28T06:02:11.035Z,3.87
2022-10-28T06:04:39.931Z,3.87
2022-10-28T06:07:09.130Z,3.67
2022-10-28T06:09:38.126Z,3.97
2022-10-28T06:12:06.923Z,4.70
2022-10-28T06:14:37.179Z,4.30
2022-10-28T06:17:06.152Z,4.37
2022-10-28T06:19:35.099Z,4.57
2022-10-28T06:22:04.213Z,3.53
2022-10-28T06:24:33.133Z,4.00
2022-10-28T06:27:02.050Z,4.50
2022-10-28T06:29:31.038Z,4.23
2022-10-28T06:32:01.345Z,4.10
2022-10-28T06:34:30.283Z,4.33
2022-10-28T06:36:59.218Z,4.10
2022-10-28T06:39:28.155Z,4.00
2022-10-28T06:41:57.069Z,4.17
2022-10-28T06:44:26.159Z,4.00
2022-10-28T06:46:57.378Z,4.13
2022-10-28T06:49:28.511Z,4.10
2022-10-28T06:51:57.442Z,4.88
2022-10-28T06:54:26.364Z,4.77
2022-10-28T06:56:55.299Z,4.33
2022-10-28T06:59:24.276Z,4.60
2022-10-28T07:01:53.269Z,4.68
2022-10-28T07:04:22.349Z,4.10
2022-10-28T07:06:56.496Z,4.20
2022-10-28T07:09:25.451Z,4.40
2022-10-28T07:11:55.333Z,3.97
2022-10-28T07:14:24.577Z,3.77
2022-10-28T07:16:53.621Z,3.83
2022-10-28T07:19:22.790Z,4.28
2022-10-28T07:21:53.096Z,4.13
2022-10-28T07:24:22.065Z,3.77
2022-10-28T07:26:53.052Z,3.80
2022-10-28T07:29:24.473Z,4.15
2022-10-28T07:31:56.013Z,4.17
2022-10-28T07:34:27.224Z,4.82
2022-10-28T07:36:58.118Z,4.43
2022-10-28T07:39:28.445Z,4.70
2022-10-28T07:41:57.452Z,4.27
2022-10-28T07:44:26.386Z,3.83
2022-10-28T07:46:58.015Z,4.43
2022-10-28T07:49:27.501Z,4.55
2022-10-28T07:51:57.964Z,4.43
2022-10-28T07:54:26.925Z,4.00
2022-10-28T07:56:55.823Z,4.53
2022-10-28T07:59:26.915Z,4.15
2022-10-28T08:01:56.383Z,4.07
2022-10-28T08:04:25.435Z,4.20
2022-10-28T08:09:24.939Z,4.82
2022-10-28T08:11:57.605Z,4.40
2022-10-28T08:14:26.521Z,4.28
2022-10-28T08:16:55.400Z,3.65
2022-10-28T08:19:24.337Z,4.40
2022-10-28T08:21:53.259Z,4.03
2022-10-28T08:24:22.230Z,4.30
2022-10-28T08:26:52.567Z,4.32
2022-10-28T08:29:23.412Z,3.90
2022-10-28T08:31:55.193Z,4.22
2022-10-28T08:34:24.175Z,3.78
2022-10-28T08:36:53.200Z,3.95
2022-10-28T08:39:22.248Z,3.80
2022-10-28T08:41:56.927Z,3.40
2022-10-28T08:44:49.062Z,3.60
2022-10-28T08:47:30.833Z,3.33
2022-10-28T08:50:04.537Z,3.67
2022-10-28T08:52:40.247Z,3.05
2022-10-28T08:55:16.041Z,3.20
2022-10-28T08:57:51.863Z,3.38
2022-10-28T09:00:24.257Z,2.95
2022-10-28T09:03:06.640Z,2.70
2022-10-28T09:05:36.016Z,2.83
2022-10-28T09:08:05.679Z,2.38
2022-10-28T09:10:56.399Z,1.90
2022-10-28T09:13:39.986Z,2.55
2022-10-28T09:16:16.172Z,2.55
2022-10-28T09:18:53.830Z,2.50
2022-10-28T09:21:32.712Z,2.40
2022-10-28T09:24:08.841Z,1.85
2022-10-28T09:26:48.877Z,2.00
2022-10-28T09:29:37.175Z,2.50
2022-10-28T09:32:18.059Z,1.92
2022-10-28T09:34:50.918Z,2.03
2022-10-28T09:37:23.840Z,2.20
2022-10-28T09:39:56.797Z,2.70
2022-10-28T09:42:30.484Z,1.85
2022-10-28T09:45:05.992Z,2.80
2022-10-28T09:47:40.050Z,2.13
2022-10-28T09:50:20.004Z,2.03
2022-10-28T09:52:56.380Z,2.67
2022-10-28T09:55:25.685Z,2.58
2022-10-28T09:57:54.906Z,2.30
2022-10-28T10:00:25.568Z,2.30
2022-10-28T10:02:58.503Z,2.25
2022-10-28T10:05:27.945Z,2.58
2022-10-28T10:07:59.978Z,2.40
2022-10-28T10:10:33.288Z,2.28
2022-10-28T10:13:05.671Z,2.35
2022-10-28T10:15:39.909Z,2.22
2022-10-28T10:18:16.701Z,2.28
2022-10-28T10:20:52.482Z,2.60
2022-10-28T10:23:28.816Z,2.20
2022-10-28T10:26:00.995Z,2.78
2022-10-28T10:28:31.402Z,2.03
2022-10-28T10:31:03.984Z,2.08
2022-10-28T10:33:35.745Z,2.00
2022-10-28T10:36:17.298Z,2.53
2022-10-28T10:38:50.206Z,2.22
2022-10-28T10:41:35.329Z,2.40
2022-10-28T10:44:24.726Z,2.65
2022-10-28T10:47:19.387Z,2.05
2022-10-28T10:49:49.750Z,2.13
2022-10-28T10:52:22.671Z,2.58
2022-10-28T10:55:04.478Z,2.85
2022-10-28T10:57:34.690Z,2.47
2022-10-28T11:00:04.565Z,2.58
2022-10-28T11:02:39.698Z,2.28
2022-10-28T11:05:11.487Z,2.13
2022-10-28T11:07:48.745Z,2.05
2022-10-28T11:10:25.596Z,1.80
2022-10-28T11:12:57.046Z,2.25
2022-10-28T11:15:28.909Z,2.38
2022-10-28T11:18:01.801Z,2.20
2022-10-28T11:20:40.749Z,2.22
2022-10-28T11:23:23.662Z,1.90
2022-10-28T11:25:55.777Z,1.60
2022-10-28T11:28:56.837Z,1.80
2022-10-28T11:31:40.675Z,1.95
2022-10-28T11:34:30.133Z,1.92
2022-10-28T11:37:09.439Z,2.10
2022-10-28T11:39:50.795Z,1.90
2022-10-28T11:42:32.473Z,2.00
2022-10-28T11:45:10.009Z,1.85
2022-10-28T11:47:55.671Z,1.70
2022-10-28T11:50:36.221Z,2.10
2022-10-28T11:53:37.952Z,2.53
2022-10-28T11:56:18.485Z,2.63
2022-10-28T11:58:57.429Z,2.03
2022-10-28T12:01:49.692Z,2.15
2022-10-28T12:04:33.963Z,2.05
2022-10-28T12:07:23.927Z,1.98
2022-10-28T12:10:08.262Z,2.08
2022-10-28T12:12:47.270Z,1.80
2022-10-28T12:15:26.659Z,1.90
2022-10-28T12:18:06.291Z,2.70
2022-10-28T12:20:43.328Z,2.40
2022-10-28T12:23:17.911Z,2.00
2022-10-28T12:25:52.553Z,2.25
2022-10-28T12:28:25.946Z,2.72
2022-10-28T12:30:57.335Z,2.22
2022-10-28T12:33:28.662Z,2.45
2022-10-28T12:36:20.046Z,2.20
2022-10-28T12:38:57.417Z,2.72
2022-10-28T12:41:31.918Z,2.20
2022-10-28T12:44:05.554Z,2.17
2022-10-28T12:49:32.660Z,2.60
2022-10-28T12:52:08.785Z,2.03
2022-10-28T12:54:53.689Z,2.50
2022-10-28T12:57:25.667Z,2.08
2022-10-28T13:00:00.710Z,2.58
2022-10-28T13:02:36.479Z,4.05
2022-10-28T13:05:06.806Z,2.67
2022-10-28T13:07:58.535Z,2.80
2022-10-28T13:10:38.236Z,2.53
2022-10-28T13:13:33.576Z,2.35
2022-10-28T13:16:14.547Z,2.60
2022-10-28T13:19:18.600Z,2.55
2022-10-28T13:22:07.190Z,2.53
2022-10-28T13:24:50.345Z,2.30
2022-10-28T13:27:22.991Z,2.90
2022-10-28T13:29:54.463Z,2.30
2022-10-28T13:32:38.616Z,2.97
2022-10-28T13:35:22.063Z,2.50
2022-10-28T13:37:54.063Z,2.47
2022-10-28T13:40:40.040Z,2.83
2022-10-28T13:43:19.783Z,2.58
2022-10-28T13:45:52.472Z,1.90
2022-10-28T13:48:49.193Z,2.33
2022-10-28T13:51:48.769Z,2.45
2022-10-28T13:54:53.504Z,2.17
2022-10-28T13:57:29.679Z,2.50
2022-10-28T14:00:02.104Z,2.38
2022-10-28T14:02:38.705Z,2.92
2022-10-28T14:05:10.189Z,2.60
2022-10-28T14:07:51.297Z,2.30
2022-10-28T14:10:26.385Z,2.05
2022-10-28T14:12:58.464Z,2.90
2022-10-28T14:15:34.772Z,2.63
2022-10-28T14:18:37.283Z,2.10
2022-10-28T14:21:01.362Z,2.20
2022-10-28T14:24:06.598Z,2.22
2022-10-28T14:27:20.297Z,2.22
2022-10-28T14:29:51.334Z,1.90
2022-10-28T14:32:44.435Z,2.20
2022-10-28T14:35:29.345Z,2.30
2022-10-28T14:38:32.932Z,4.35
2022-10-28T14:41:16.907Z,2.97
2022-10-28T14:43:58.874Z,2.70
2022-10-28T14:46:41.626Z,3.40
2022-10-28T14:49:21.332Z,3.33
2022-10-28T14:51:52.095Z,2.90
2022-10-28T14:54:40.884Z,2.65
2022-10-28T14:57:10.424Z,2.55
2022-10-28T14:59:41.523Z,2.67
2022-10-28T15:02:14.558Z,2.83
2022-10-28T15:04:47.388Z,3.13
2022-10-28T15:07:19.266Z,3.53
2022-10-28T15:09:53.307Z,3.15
2022-10-28T15:12:25.954Z,2.42
2022-10-28T15:14:57.365Z,3.17
2022-10-28T15:17:28.036Z,2.15
2022-10-28T15:20:00.072Z,2.10
2022-10-28T15:22:32.055Z,2.92
2022-10-28T15:25:03.100Z,2.80
2022-10-28T15:27:33.688Z,2.30
2022-10-28T15:30:03.047Z,2.70
2022-10-28T15:32:36.377Z,2.90
2022-10-28T15:35:39.409Z,2.65
2022-10-28T15:38:39.106Z,2.60
2022-10-28T15:41:49.354Z,2.22
2022-10-28T15:44:32.462Z,2.60
2022-10-28T15:47:05.528Z,2.70
2022-10-28T15:49:40.372Z,2.58
2022-10-28T15:52:42.280Z,3.05
2022-10-28T15:55:47.838Z,3.40
2022-10-28T15:58:36.747Z,3.28
2022-10-28T16:01:10.978Z,3.20
2022-10-28T16:03:51.078Z,2.90
2022-10-28T16:06:24.942Z,3.10
2022-10-28T16:09:12.753Z,3.33
2022-10-28T16:11:45.415Z,2.83
2022-10-28T16:14:34.943Z,3.75
2022-10-28T16:17:12.684Z,3.03
2022-10-28T16:19:44.983Z,3.75
2022-10-28T16:22:15.236Z,3.25
2022-10-28T16:24:45.705Z,3.03
2022-10-28T16:27:23.206Z,2.90
2022-10-28T16:29:53.003Z,3.42
2022-10-28T16:32:28.829Z,3.10
2022-10-28T16:34:58.595Z,3.30
2022-10-28T16:37:29.817Z,3.20
2022-10-28T16:40:00.140Z,3.15
2022-10-28T16:42:29.147Z,3.53
2022-10-28T16:44:58.298Z,3.15
2022-10-28T16:47:27.444Z,4.13
2022-10-28T16:49:57.830Z,3.60
2022-10-28T16:52:29.653Z,3.35
2022-10-28T16:55:00.351Z,3.80
2022-10-28T16:57:29.596Z,3.75
2022-10-28T16:59:58.606Z,4.15
2022-10-28T17:02:31.581Z,3.55
2022-10-28T17:05:04.894Z,3.45
2022-10-28T17:07:33.933Z,3.65
2022-10-28T17:10:04.649Z,3.60
2022-10-28T17:12:33.582Z,3.40
2022-10-28T17:15:02.537Z,3.40
2022-10-28T17:17:31.578Z,3.67
2022-10-28T17:20:00.571Z,3.67
2022-10-28T17:22:29.499Z,3.80
2022-10-28T17:24:58.567Z,4.40
2022-10-28T17:27:28.912Z,3.55
2022-10-28T17:29:57.992Z,3.90
2022-10-28T17:32:27.279Z,3.60
2022-10-28T17:34:56.209Z,3.38
2022-10-28T17:37:25.147Z,4.35
2022-10-28T17:42:29.365Z,3.75
2022-10-28T17:44:58.347Z,3.78
2022-10-28T17:47:27.214Z,3.58
2022-10-28T17:49:56.395Z,3.92
2022-10-28T17:52:25.469Z,3.92
2022-10-28T17:54:54.845Z,3.17
2022-10-28T17:57:23.817Z,3.38
2022-10-28T17:59:54.059Z,3.17
2022-10-28T18:02:23.603Z,3.15
2022-10-28T18:04:52.678Z,3.65
2022-10-28T18:07:21.633Z,3.35
2022-10-28T18:09:50.552Z,3.60
2022-10-28T18:12:19.547Z,3.17
2022-10-28T18:14:48.526Z,3.10
2022-10-28T18:17:18.956Z,3.25
2022-10-28T18:19:47.847Z,3.10
2022-10-28T18:22:16.963Z,3.55
2022-10-28T18:24:45.939Z,4.20
2022-10-28T18:27:14.957Z,4.45
2022-10-28T18:29:44.392Z,3.85
2022-10-28T18:32:13.530Z,3.92
2022-10-28T18:34:43.856Z,3.20
2022-10-28T18:37:13.032Z,3.72
2022-10-28T18:39:42.255Z,3.20
2022-10-28T18:42:12.416Z,3.53
2022-10-28T18:44:41.918Z,3.30
2022-10-28T18:47:10.834Z,3.38
2022-10-28T18:49:39.846Z,3.38
2022-10-28T18:52:10.132Z,3.97
2022-10-28T18:54:39.044Z,3.10
2022-10-28T18:57:07.972Z,3.15
2022-10-28T18:59:43.178Z,3.00
2022-10-28T19:02:16.544Z,3.45
2022-10-28T19:04:45.623Z,3.40
2022-10-28T19:07:16.010Z,3.35
2022-10-28T19:09:44.930Z,3.70
2022-10-28T19:12:14.002Z,3.97
2022-10-28T19:14:42.906Z,3.97
2022-10-28T19:17:12.387Z,4.10
2022-10-28T19:19:41.279Z,3.92
2022-10-28T19:22:10.246Z,4.03
2022-10-28T19:24:40.570Z,7.53
2022-10-28T19:27:09.618Z,4.30
2022-10-28T19:29:38.937Z,3.95
2022-10-28T19:32:07.925Z,4.20
2022-10-28T19:34:37.025Z,4.18
2022-10-28T19:37:05.939Z,3.97
2022-10-28T19:39:34.883Z,5.90
2022-10-28T19:42:05.208Z,4.40
2022-10-28T19:44:34.113Z,4.10
2022-10-28T19:47:03.083Z,4.20
2022-10-28T19:49:37.228Z,4.13
2022-10-28T19:52:07.277Z,4.63
2022-10-28T19:54:36.210Z,4.95
2022-10-28T19:57:06.636Z,4.22
2022-10-28T19:59:35.599Z,4.22
2022-10-28T20:02:05.773Z,5.00
2022-10-28T20:04:34.918Z,4.38
2022-10-28T20:07:06.732Z,4.50
2022-10-28T20:09:35.721Z,5.63
2022-10-28T20:12:06.434Z,5.10
2022-10-28T20:14:35.881Z,4.35
2022-10-28T20:17:06.713Z,5.75
2022-10-28T20:19:35.929Z,4.93
2022-10-28T20:22:05.158Z,4.90
2022-10-28T20:24:34.245Z,4.70
2022-10-28T20:27:03.277Z,5.38
2022-10-28T20:29:33.616Z,5.97
2022-10-28T20:32:02.695Z,4.88
2022-10-28T20:34:31.604Z,5.38
2022-10-28T20:37:00.857Z,5.80
2022-10-28T20:39:29.987Z,5.75
2022-10-28T20:41:58.938Z,4.85
2022-10-28T20:44:28.700Z,4.88
2022-10-28T20:46:59.015Z,5.13
2022-10-28T20:49:27.956Z,5.20
2022-10-28T20:51:56.850Z,5.25
2022-10-28T20:54:25.765Z,5.20
2022-10-28T20:56:54.728Z,4.70
2022-10-28T20:59:23.871Z,5.15
2022-10-28T21:01:53.052Z,4.97
2022-10-28T21:04:23.957Z,5.57
2022-10-28T21:06:53.022Z,5.50
2022-10-28T21:09:21.982Z,5.57
2022-10-28T21:11:50.907Z,5.00
2022-10-28T21:14:20.272Z,5.38
2022-10-28T21:16:51.466Z,4.97
2022-10-28T21:19:21.787Z,5.18
2022-10-28T21:21:50.829Z,5.43
2022-10-28T21:24:19.844Z,5.20
2022-10-28T21:26:52.238Z,5.53
2022-10-28T21:29:21.225Z,5.25
2022-10-28T21:31:51.454Z,5.65
2022-10-28T21:34:21.688Z,5.72
2022-10-28T21:36:50.881Z,6.13
2022-10-28T21:39:25.876Z,4.35
2022-10-28T21:41:54.776Z,4.65
2022-10-28T21:44:23.783Z,5.50
2022-10-28T21:46:54.667Z,5.65
2022-10-28T21:49:25.042Z,4.93
2022-10-28T21:51:54.085Z,4.38
2022-10-28T21:54:23.118Z,5.25
2022-10-28T21:56:52.728Z,5.18
2022-10-28T21:59:21.755Z,4.88
2022-10-28T22:01:50.932Z,5.40
2022-10-28T22:04:19.915Z,4.72
2022-10-28T22:06:50.238Z,4.55
2022-10-28T22:09:19.237Z,4.70
2022-10-28T22:11:48.164Z,4.25
2022-10-28T22:14:17.418Z,5.07
2022-10-28T22:16:46.360Z,4.28
2022-10-28T22:19:16.148Z,4.80
2022-10-28T22:21:45.302Z,5.00
2022-10-28T22:24:15.715Z,4.90
2022-10-28T22:26:44.813Z,4.88
2022-10-28T22:29:13.992Z,4.85
2022-10-28T22:31:43.008Z,4.72
2022-10-28T22:34:12.000Z,5.05
2022-10-28T22:36:43.143Z,4.85
2022-10-28T22:39:12.328Z,4.28
2022-10-28T22:41:42.647Z,4.70
2022-10-28T22:44:11.666Z,4.45
2022-10-28T22:46:41.077Z,5.75
2022-10-28T22:49:10.046Z,4.70
2022-10-28T22:51:39.023Z,5.18
2022-10-28T22:54:08.137Z,4.80
2022-10-28T22:56:37.071Z,4.85
2022-10-28T22:59:07.606Z,4.97
2022-10-28T23:01:36.628Z,4.72
2022-10-28T23:04:09.966Z,5.03
2022-10-28T23:06:38.970Z,4.90
2022-10-28T23:09:07.908Z,4.70
2022-10-28T23:11:37.273Z,4.50
2022-10-28T23:14:07.753Z,5.68
2022-10-28T23:16:36.704Z,4.80
2022-10-28T23:19:05.755Z,5.20
2022-10-28T23:21:34.809Z,4.15
2022-10-28T23:24:03.717Z,5.07
2022-10-28T23:26:32.700Z,4.50
2022-10-28T23:29:01.905Z,4.30
2022-10-28T23:31:32.230Z,4.25
2022-10-28T23:34:01.717Z,4.78
2022-10-28T23:36:30.604Z,4.55
2022-10-28T23:38:59.515Z,4.35
2022-10-28T23:41:28.443Z,4.03
2022-10-28T23:44:00.429Z,3.83
2022-10-28T23:46:36.492Z,4.32
2022-10-28T23:49:06.521Z,3.90
2022-10-28T23:51:35.473Z,4.35
2022-10-28T23:54:04.472Z,3.65
2022-10-28T23:56:33.384Z,3.80
2022-10-28T23:59:02.302Z,4.10
